LHPP/PEV METAR and TAF weather

Enter ICAO airport designator
Station Type Date Time Source
LHPP METAR 2019/10/18 11:15 UTC NOAA

LHPP 181115Z 24008KT 9999 FEW040 21/11 Q1017


Station Type Date Time Source
LHPP Decoded METAR 2019/10/18 11:15 UTC NOAA

Pecs / Pogany, Hungary (LHPP) 46-06N 018-14E 203M
Oct 18, 2019 - 07:15 AM EDT / 2019.10.18 1115 UTC
Wind: from the WSW (240 degrees) at 9 MPH (8 KT):0
Visibility: greater than 7 mile(s):0
Sky conditions: mostly clear
Temperature: 69 F (21 C)
Dew Point: 51 F (11 C)
Relative Humidity: 52%
Pressure (altimeter): 30.03 in. Hg (1017 hPa)
ob: LHPP 181115Z 24008KT 9999 FEW040 21/11 Q1017
cycle: 11

Station Type Date Time Source
LHPP TAF 2017/08/21 15:50 UTC NOAA

TAF LHPP 211700Z 2115/2214 CNL

Example: see airport list